createdAt,value
2023-03-29T00:02:07.642Z,4.45
2023-03-29T00:04:34.967Z,5.00
2023-03-29T00:07:04.338Z,5.22
2023-03-29T00:09:32.946Z,7.63
2023-03-29T00:12:01.357Z,5.03
2023-03-29T00:14:30.364Z,5.25
2023-03-29T00:16:57.981Z,6.55
2023-03-29T00:19:25.387Z,6.05
2023-03-29T00:21:52.513Z,7.72
2023-03-29T00:24:21.002Z,4.88
2023-03-29T00:26:48.281Z,4.35
2023-03-29T00:29:15.565Z,6.53
2023-03-29T00:31:44.436Z,5.78
2023-03-29T00:34:11.696Z,4.82
2023-03-29T00:36:40.584Z,4.82
2023-03-29T00:39:08.174Z,6.32
2023-03-29T00:41:35.492Z,6.10
2023-03-29T00:44:28.760Z,4.47
2023-03-29T00:46:55.972Z,5.25
2023-03-29T00:49:24.402Z,5.07
2023-03-29T00:51:51.570Z,7.72
2023-03-29T00:54:19.489Z,6.82
2023-03-29T00:56:50.158Z,5.82
2023-03-29T00:59:19.919Z,5.30
2023-03-29T01:01:55.194Z,5.07
2023-03-29T01:04:29.331Z,4.28
2023-03-29T01:07:01.671Z,5.28
2023-03-29T01:09:31.085Z,5.60
2023-03-29T01:11:59.991Z,5.72
2023-03-29T01:14:34.436Z,6.45
2023-03-29T01:17:02.432Z,5.63
2023-03-29T01:19:33.033Z,5.93
2023-03-29T01:22:17.280Z,5.65
2023-03-29T01:25:00.215Z,7.63
2023-03-29T01:27:46.100Z,3.83
2023-03-29T01:30:15.116Z,6.72
2023-03-29T01:32:51.524Z,5.93
2023-03-29T01:35:32.526Z,7.32
2023-03-29T01:38:03.512Z,5.60
2023-03-29T01:40:31.072Z,5.85
2023-03-29T01:43:12.755Z,6.60
2023-03-29T01:45:58.224Z,4.90
2023-03-29T01:48:32.271Z,7.38
2023-03-29T01:51:05.001Z,8.13
2023-03-29T01:53:44.590Z,4.70
2023-03-29T01:56:17.091Z,7.28
2023-03-29T01:58:46.018Z,6.47
2023-03-29T02:01:17.562Z,8.68
2023-03-29T02:03:49.668Z,7.00
2023-03-29T02:06:20.610Z,7.35
2023-03-29T02:08:48.320Z,7.22
2023-03-29T02:11:15.412Z,6.40
2023-03-29T02:13:42.529Z,5.15
2023-03-29T02:16:13.404Z,6.25
2023-03-29T02:18:41.881Z,7.13
2023-03-29T02:21:10.037Z,6.07
2023-03-29T02:23:48.862Z,7.25
2023-03-29T02:26:16.477Z,6.40
2023-03-29T02:28:43.775Z,8.32
2023-03-29T02:31:18.876Z,6.55
2023-03-29T02:33:52.996Z,9.23
2023-03-29T02:36:20.800Z,6.57
2023-03-29T02:38:47.978Z,8.02
2023-03-29T02:41:16.810Z,6.32
2023-03-29T02:43:46.102Z,7.85
2023-03-29T02:46:14.452Z,7.90
2023-03-29T02:48:41.968Z,7.78
2023-03-29T02:51:13.523Z,8.23
2023-03-29T02:53:47.796Z,7.15
2023-03-29T02:56:15.067Z,7.85
2023-03-29T02:58:42.256Z,7.00
2023-03-29T03:01:10.403Z,6.88
2023-03-29T03:03:37.667Z,8.65
2023-03-29T03:06:05.807Z,7.97
2023-03-29T03:08:33.213Z,8.88
2023-03-29T03:11:00.606Z,8.02
2023-03-29T03:13:28.087Z,10.07
2023-03-29T03:15:55.311Z,9.00
2023-03-29T03:18:23.299Z,9.73
2023-03-29T03:20:57.685Z,8.65
2023-03-29T03:23:25.034Z,8.10
2023-03-29T03:25:52.836Z,9.13
2023-03-29T03:28:21.985Z,9.63
2023-03-29T03:30:49.559Z,8.50
2023-03-29T03:33:27.014Z,9.40
2023-03-29T03:36:16.915Z,11.70
2023-03-29T03:38:46.170Z,6.88
2023-03-29T03:41:13.329Z,8.38
2023-03-29T03:43:42.838Z,6.78
2023-03-29T03:46:10.477Z,9.75
2023-03-29T03:48:38.158Z,9.55
2023-03-29T03:51:09.410Z,8.95
2023-03-29T03:53:36.653Z,9.23
2023-03-29T03:56:29.874Z,8.75
2023-03-29T03:59:20.060Z,12.10
2023-03-29T04:02:01.737Z,8.95
2023-03-29T04:04:29.648Z,8.70
2023-03-29T04:07:14.244Z,9.20
2023-03-29T04:10:00.362Z,11.90
2023-03-29T04:12:40.733Z,8.27
2023-03-29T04:15:10.384Z,9.45
2023-03-29T04:17:39.499Z,8.25
2023-03-29T04:20:20.259Z,9.85
2023-03-29T04:22:47.623Z,10.23
2023-03-29T04:25:15.447Z,9.23
2023-03-29T04:27:42.568Z,10.07
2023-03-29T04:30:19.500Z,5.95
2023-03-29T04:35:30.475Z,9.95
2023-03-29T04:37:57.908Z,7.30
2023-03-29T04:40:25.239Z,7.97
2023-03-29T04:43:02.567Z,9.48
2023-03-29T04:45:30.345Z,10.32
2023-03-29T04:48:12.524Z,7.35
2023-03-29T04:53:11.309Z,9.75
2023-03-29T04:55:38.715Z,7.07
2023-03-29T04:58:08.788Z,9.07
2023-03-29T05:00:37.902Z,8.75
2023-03-29T05:03:24.385Z,11.50
2023-03-29T05:06:06.574Z,9.02
2023-03-29T05:08:35.103Z,11.32
2023-03-29T05:11:11.655Z,9.45
2023-03-29T05:13:39.151Z,10.13
2023-03-29T05:16:07.691Z,10.25
2023-03-29T05:18:35.644Z,9.98
2023-03-29T05:21:04.357Z,10.88
2023-03-29T05:23:34.393Z,8.70
2023-03-29T05:26:09.768Z,11.88
2023-03-29T05:28:37.915Z,10.10
2023-03-29T05:31:06.206Z,8.95
2023-03-29T05:33:36.403Z,8.95
2023-03-29T05:36:06.504Z,9.52
2023-03-29T05:38:34.788Z,10.15
2023-03-29T05:41:03.582Z,9.02
2023-03-29T05:43:53.326Z,7.78
2023-03-29T05:46:23.874Z,10.38
2023-03-29T05:48:53.617Z,8.27
2023-03-29T05:51:24.445Z,11.50
2023-03-29T05:53:54.565Z,9.90
2023-03-29T05:56:22.815Z,9.73
2023-03-29T05:58:50.982Z,11.02
2023-03-29T06:01:19.449Z,8.02
2023-03-29T06:04:00.969Z,9.93
2023-03-29T06:06:43.661Z,8.18
2023-03-29T06:09:11.597Z,9.60
2023-03-29T06:11:52.823Z,10.05
2023-03-29T06:14:27.180Z,12.30
2023-03-29T06:17:05.178Z,11.27
2023-03-29T06:19:32.934Z,9.63
2023-03-29T06:22:00.088Z,9.20
2023-03-29T06:24:29.102Z,10.63
2023-03-29T06:27:02.568Z,10.20
2023-03-29T06:29:30.932Z,9.18
2023-03-29T06:31:58.339Z,6.85
2023-03-29T06:34:44.394Z,11.88
2023-03-29T06:37:30.133Z,11.43
2023-03-29T06:40:09.365Z,9.50
2023-03-29T06:42:42.878Z,10.52
2023-03-29T06:45:37.728Z,10.15
2023-03-29T06:48:10.720Z,9.63
2023-03-29T06:50:37.883Z,10.50
2023-03-29T06:53:15.520Z,10.85
2023-03-29T06:55:44.644Z,9.70
2023-03-29T06:58:38.236Z,7.38
2023-03-29T07:01:25.672Z,9.27
2023-03-29T07:04:09.310Z,9.23
2023-03-29T07:07:02.393Z,9.70
2023-03-29T07:09:33.331Z,10.43
2023-03-29T07:12:32.017Z,10.52
2023-03-29T07:15:01.317Z,10.25
2023-03-29T07:17:49.039Z,8.73
2023-03-29T07:20:16.964Z,9.38
2023-03-29T07:22:53.765Z,8.60
2023-03-29T07:25:22.544Z,9.38
2023-03-29T07:27:50.249Z,10.68
2023-03-29T07:30:19.064Z,9.95
2023-03-29T07:32:46.524Z,12.27
2023-03-29T07:35:24.888Z,9.20
2023-03-29T07:37:52.791Z,9.40
2023-03-29T07:40:23.846Z,6.70
2023-03-29T07:42:58.776Z,7.70
2023-03-29T07:45:29.708Z,10.75
2023-03-29T07:48:02.689Z,8.35
2023-03-29T07:50:46.313Z,8.00
2023-03-29T07:53:14.047Z,8.23
2023-03-29T07:55:47.646Z,10.35
2023-03-29T07:58:35.263Z,8.05
2023-03-29T08:01:03.652Z,9.90
2023-03-29T08:03:49.433Z,10.40
2023-03-29T08:06:17.664Z,7.95
2023-03-29T08:08:45.258Z,8.27
2023-03-29T08:11:15.747Z,10.23
2023-03-29T08:13:58.900Z,7.85
2023-03-29T08:16:44.759Z,7.05
2023-03-29T08:19:14.788Z,10.15
2023-03-29T08:21:52.010Z,9.55
2023-03-29T08:24:22.095Z,8.23
2023-03-29T08:26:54.388Z,6.07
2023-03-29T08:29:22.266Z,7.85
2023-03-29T08:31:49.426Z,11.20
2023-03-29T08:34:16.691Z,13.95
2023-03-29T08:37:04.009Z,7.35
2023-03-29T08:39:41.841Z,6.25
2023-03-29T08:42:30.783Z,5.70
2023-03-29T08:47:28.588Z,7.05
2023-03-29T08:49:57.802Z,6.85
2023-03-29T08:52:41.359Z,8.68
2023-03-29T08:55:39.230Z,12.70
2023-03-29T08:58:30.071Z,12.57
2023-03-29T09:00:59.098Z,12.75
2023-03-29T09:03:37.438Z,14.02
2023-03-29T09:06:15.542Z,11.13
2023-03-29T09:08:49.985Z,13.20
2023-03-29T09:11:26.208Z,15.40
2023-03-29T09:14:11.715Z,10.98
2023-03-29T09:16:43.146Z,11.00
2023-03-29T09:19:10.370Z,6.18
2023-03-29T09:21:38.103Z,9.38
2023-03-29T09:24:05.401Z,11.18
2023-03-29T09:26:40.977Z,6.18
2023-03-29T09:29:24.531Z,6.95
2023-03-29T09:31:53.459Z,8.13
2023-03-29T09:34:29.455Z,11.77
2023-03-29T09:37:06.782Z,16.85
2023-03-29T09:39:34.005Z,16.35
2023-03-29T09:42:10.224Z,6.22
2023-03-29T09:44:41.412Z,7.65
2023-03-29T09:47:26.247Z,12.45
2023-03-29T09:49:57.154Z,15.02
2023-03-29T09:52:24.343Z,12.00
2023-03-29T09:55:15.357Z,8.93
2023-03-29T09:57:53.547Z,11.52
2023-03-29T10:00:21.496Z,9.82
2023-03-29T10:02:57.170Z,9.18
2023-03-29T10:05:37.120Z,12.60
2023-03-29T10:08:19.506Z,11.65
2023-03-29T10:10:47.239Z,9.02
2023-03-29T10:13:18.004Z,14.10
2023-03-29T10:15:45.134Z,8.63
2023-03-29T10:18:13.862Z,11.05
2023-03-29T10:20:41.373Z,11.13
2023-03-29T10:23:10.291Z,8.75
2023-03-29T10:25:42.605Z,7.18
2023-03-29T10:28:16.395Z,12.40
2023-03-29T10:30:46.001Z,8.57
2023-03-29T10:33:18.109Z,10.90
2023-03-29T10:35:45.374Z,9.70
2023-03-29T10:38:17.314Z,14.07
2023-03-29T10:40:59.714Z,9.50
2023-03-29T10:43:29.714Z,11.63
2023-03-29T10:46:05.825Z,7.38
2023-03-29T10:48:36.077Z,13.15
2023-03-29T10:51:05.899Z,8.07
2023-03-29T10:53:34.148Z,8.80
2023-03-29T10:56:01.424Z,10.52
2023-03-29T10:58:47.792Z,9.07
2023-03-29T11:01:18.858Z,8.45
2023-03-29T11:03:55.604Z,9.60
2023-03-29T11:08:58.769Z,8.15
2023-03-29T11:11:44.410Z,9.05
2023-03-29T11:14:17.772Z,11.82
2023-03-29T11:16:50.980Z,10.68
2023-03-29T11:19:24.199Z,9.13
2023-03-29T11:22:02.379Z,10.38
2023-03-29T11:24:55.795Z,11.82
2023-03-29T11:27:23.268Z,8.73
2023-03-29T11:29:58.482Z,9.98
2023-03-29T11:32:33.555Z,9.63
2023-03-29T11:35:12.664Z,9.60
2023-03-29T11:37:43.115Z,12.02
2023-03-29T11:40:25.665Z,13.82
2023-03-29T11:42:54.217Z,13.27
2023-03-29T11:45:28.704Z,10.13
2023-03-29T11:47:56.354Z,14.43
2023-03-29T11:50:26.161Z,9.05
2023-03-29T11:52:59.565Z,14.73
2023-03-29T11:55:31.917Z,16.58
2023-03-29T11:58:04.828Z,12.02
2023-03-29T12:00:36.483Z,16.77
2023-03-29T12:03:07.508Z,12.98
2023-03-29T12:05:45.501Z,10.27
2023-03-29T12:08:53.803Z,11.65
2023-03-29T12:11:31.866Z,10.60
2023-03-29T12:14:04.208Z,11.43
2023-03-29T12:16:54.683Z,11.55
2023-03-29T12:19:29.651Z,10.45
2023-03-29T12:21:57.710Z,13.00
2023-03-29T12:24:27.501Z,9.52
2023-03-29T12:27:09.803Z,12.40
2023-03-29T12:29:48.435Z,10.50
2023-03-29T12:32:28.981Z,13.23
2023-03-29T12:35:18.779Z,9.95
2023-03-29T12:38:19.887Z,10.93
2023-03-29T12:41:13.281Z,9.50
2023-03-29T12:44:02.256Z,12.48
2023-03-29T12:46:37.016Z,9.48
2023-03-29T12:49:11.363Z,10.80
2023-03-29T12:51:40.869Z,8.02
2023-03-29T12:54:20.684Z,10.73
2023-03-29T12:56:54.459Z,11.60
2023-03-29T12:59:38.879Z,10.70
2023-03-29T13:02:15.340Z,10.02
2023-03-29T13:05:00.279Z,11.25
2023-03-29T13:07:30.740Z,10.07
2023-03-29T13:09:57.887Z,8.98
2023-03-29T13:12:32.973Z,9.65
2023-03-29T13:15:01.960Z,9.48
2023-03-29T13:17:45.222Z,10.15
2023-03-29T13:20:15.287Z,10.70
2023-03-29T13:22:45.795Z,9.05
2023-03-29T13:25:33.294Z,8.43
2023-03-29T13:28:39.079Z,7.65
2023-03-29T13:31:27.791Z,13.95
2023-03-29T13:34:22.197Z,8.00
2023-03-29T13:36:54.630Z,8.88
2023-03-29T13:39:24.090Z,8.88
2023-03-29T13:41:52.608Z,8.80
2023-03-29T13:44:22.621Z,9.40
2023-03-29T13:46:51.035Z,8.70
2023-03-29T13:49:18.215Z,9.05
2023-03-29T13:52:01.147Z,9.05
2023-03-29T13:54:42.792Z,8.77
2023-03-29T13:57:34.921Z,9.50
2023-03-29T14:00:13.497Z,13.60
2023-03-29T14:02:57.934Z,12.18
2023-03-29T14:05:41.632Z,8.45
2023-03-29T14:08:10.524Z,9.88
2023-03-29T14:10:42.197Z,11.77
2023-03-29T14:13:17.507Z,17.90
2023-03-29T14:15:55.730Z,22.60
2023-03-29T14:18:24.408Z,18.38
2023-03-29T14:20:54.864Z,9.82
2023-03-29T14:23:27.119Z,11.32
2023-03-29T14:25:54.321Z,9.50
2023-03-29T14:28:24.230Z,11.43
2023-03-29T14:30:52.495Z,11.30
2023-03-29T14:33:34.561Z,17.80
2023-03-29T14:36:06.636Z,9.27
2023-03-29T14:38:37.631Z,9.00
2023-03-29T14:41:05.054Z,15.18
2023-03-29T14:43:32.410Z,15.15
2023-03-29T14:46:01.596Z,12.25
2023-03-29T14:48:30.682Z,13.07
2023-03-29T14:50:57.928Z,16.23
2023-03-29T14:53:25.969Z,13.20
2023-03-29T14:55:53.760Z,13.30
2023-03-29T14:58:24.913Z,14.50
2023-03-29T15:00:52.670Z,15.35
2023-03-29T15:03:26.056Z,14.43
2023-03-29T15:06:01.592Z,15.25
2023-03-29T15:08:35.962Z,15.88
2023-03-29T15:11:03.374Z,16.00
2023-03-29T15:13:31.019Z,16.30
2023-03-29T15:15:59.883Z,14.93
2023-03-29T15:18:40.829Z,14.60
2023-03-29T15:21:08.883Z,15.93
2023-03-29T15:23:39.877Z,15.15
2023-03-29T15:26:14.330Z,12.07
2023-03-29T15:28:55.610Z,15.27
2023-03-29T15:31:29.252Z,15.50
2023-03-29T15:34:05.685Z,16.33
2023-03-29T15:36:34.661Z,17.33
2023-03-29T15:39:01.967Z,16.75
2023-03-29T15:41:29.220Z,16.80
2023-03-29T15:43:58.509Z,18.90
2023-03-29T15:46:25.664Z,15.43
2023-03-29T15:48:52.815Z,13.65
2023-03-29T15:51:19.941Z,18.05
2023-03-29T15:53:47.037Z,15.02
2023-03-29T15:56:17.070Z,20.17
2023-03-29T15:58:44.620Z,14.52
2023-03-29T16:01:19.269Z,17.02
2023-03-29T16:03:47.978Z,12.15
2023-03-29T16:06:17.318Z,13.05
2023-03-29T16:08:44.613Z,19.25
2023-03-29T16:11:12.056Z,20.17
2023-03-29T16:13:39.338Z,18.40
2023-03-29T16:16:07.200Z,20.35
2023-03-29T16:18:35.636Z,23.25
2023-03-29T16:21:03.434Z,23.10
2023-03-29T16:23:30.529Z,18.88
2023-03-29T16:25:59.176Z,22.88
2023-03-29T16:28:26.457Z,25.58
2023-03-29T16:30:53.542Z,23.83
2023-03-29T16:33:20.656Z,19.20
2023-03-29T16:35:47.869Z,22.63
2023-03-29T16:38:15.007Z,23.45
2023-03-29T16:40:42.736Z,28.10
2023-03-29T16:43:14.476Z,25.05
2023-03-29T16:45:41.695Z,25.63
2023-03-29T16:48:18.685Z,25.83
2023-03-29T16:53:21.317Z,24.95
2023-03-29T16:55:48.690Z,26.02
2023-03-29T16:58:16.162Z,24.10
2023-03-29T17:00:46.412Z,25.30
2023-03-29T17:03:15.301Z,25.80
2023-03-29T17:05:47.376Z,25.58
2023-03-29T17:08:14.672Z,24.50
2023-03-29T17:10:42.282Z,24.90
2023-03-29T17:13:09.801Z,26.30
2023-03-29T17:15:39.579Z,28.23
2023-03-29T17:18:07.252Z,24.67
2023-03-29T17:20:34.388Z,26.88
2023-03-29T17:23:01.450Z,24.83
2023-03-29T17:25:28.562Z,25.63
2023-03-29T17:27:55.697Z,22.67
2023-03-29T17:30:22.796Z,19.92
2023-03-29T17:32:49.977Z,21.30
2023-03-29T17:35:17.120Z,23.63
2023-03-29T17:37:44.241Z,23.67
2023-03-29T17:40:13.902Z,23.58
2023-03-29T17:42:41.717Z,21.88
2023-03-29T17:45:09.976Z,19.30
2023-03-29T17:47:37.859Z,19.95
2023-03-29T17:50:06.125Z,19.38
2023-03-29T17:52:33.358Z,17.60
2023-03-29T17:55:00.548Z,18.52
2023-03-29T17:57:27.695Z,17.38
2023-03-29T17:59:54.883Z,19.13
2023-03-29T18:02:23.651Z,19.92
2023-03-29T18:04:51.769Z,16.90
2023-03-29T18:07:18.897Z,18.73
2023-03-29T18:09:46.281Z,17.88
2023-03-29T18:12:13.367Z,13.60
2023-03-29T18:14:40.615Z,15.57
2023-03-29T18:17:07.925Z,19.48
2023-03-29T18:19:35.136Z,17.48
2023-03-29T18:22:02.344Z,14.63
2023-03-29T18:24:29.475Z,17.05
2023-03-29T18:26:56.546Z,13.25
2023-03-29T18:29:24.036Z,15.55
2023-03-29T18:31:51.224Z,15.57
2023-03-29T18:34:18.301Z,16.42
2023-03-29T18:36:45.431Z,14.73
2023-03-29T18:39:13.526Z,14.65
2023-03-29T18:41:40.665Z,15.05
2023-03-29T18:44:07.941Z,18.13
2023-03-29T18:46:35.273Z,17.33
2023-03-29T18:49:02.546Z,18.08
2023-03-29T18:51:30.934Z,15.43
2023-03-29T18:53:58.075Z,15.23
2023-03-29T18:56:25.659Z,18.25
2023-03-29T18:58:52.740Z,18.58
2023-03-29T19:01:19.879Z,16.50
2023-03-29T19:03:48.027Z,18.33
2023-03-29T19:06:15.417Z,16.35
2023-03-29T19:08:42.596Z,18.10
2023-03-29T19:11:11.180Z,15.18
2023-03-29T19:13:38.333Z,14.77
2023-03-29T19:16:05.820Z,14.15
2023-03-29T19:18:33.309Z,15.02
2023-03-29T19:21:00.470Z,13.50
2023-03-29T19:23:28.337Z,13.52
2023-03-29T19:25:57.082Z,11.13
2023-03-29T19:28:24.683Z,13.85
2023-03-29T19:30:51.870Z,12.73
2023-03-29T19:33:19.984Z,14.98
2023-03-29T19:35:47.474Z,14.65
2023-03-29T19:38:14.613Z,13.13
2023-03-29T19:40:45.416Z,16.00
2023-03-29T19:43:16.380Z,19.80
2023-03-29T19:45:44.237Z,10.25
2023-03-29T19:48:21.163Z,14.05
2023-03-29T19:50:49.217Z,17.35
2023-03-29T19:53:16.567Z,15.80
2023-03-29T19:55:45.334Z,16.30
2023-03-29T19:58:13.201Z,14.50
2023-03-29T20:00:41.480Z,14.15
2023-03-29T20:03:13.865Z,13.27
2023-03-29T20:05:41.312Z,12.63
2023-03-29T20:08:08.588Z,11.38
2023-03-29T20:10:36.484Z,17.38
2023-03-29T20:13:03.736Z,16.38
2023-03-29T20:15:30.960Z,14.70
2023-03-29T20:17:59.576Z,15.70
2023-03-29T20:20:27.423Z,13.70
2023-03-29T20:22:58.316Z,15.35
2023-03-29T20:25:25.816Z,10.63
2023-03-29T20:27:53.384Z,13.80
2023-03-29T20:30:20.673Z,13.48
2023-03-29T20:32:47.842Z,14.68
2023-03-29T20:35:15.321Z,15.23
2023-03-29T20:37:42.606Z,15.93
2023-03-29T20:40:10.999Z,13.55
2023-03-29T20:42:38.616Z,14.77
2023-03-29T20:45:06.390Z,15.95
2023-03-29T20:47:33.609Z,16.52
2023-03-29T20:50:03.338Z,13.95
2023-03-29T20:52:30.618Z,14.50
2023-03-29T20:54:59.137Z,11.30
2023-03-29T20:57:27.571Z,14.30
2023-03-29T20:59:56.416Z,12.38
2023-03-29T21:02:23.679Z,12.13
2023-03-29T21:04:52.056Z,11.00
2023-03-29T21:07:19.899Z,14.30
2023-03-29T21:09:50.327Z,10.18
2023-03-29T21:12:17.736Z,11.20
2023-03-29T21:14:45.050Z,13.43
2023-03-29T21:17:12.171Z,12.48
2023-03-29T21:19:39.765Z,11.57
2023-03-29T21:22:06.922Z,12.13
2023-03-29T21:24:36.283Z,8.40
2023-03-29T21:27:03.408Z,9.77
2023-03-29T21:29:30.590Z,11.48
2023-03-29T21:31:59.270Z,11.60
2023-03-29T21:34:26.353Z,10.85
2023-03-29T21:36:53.485Z,9.32
2023-03-29T21:39:20.623Z,9.32
2023-03-29T21:41:47.805Z,11.73
2023-03-29T21:44:14.922Z,9.45
2023-03-29T21:46:42.167Z,12.30
2023-03-29T21:49:09.284Z,8.85
2023-03-29T21:51:36.436Z,10.45
2023-03-29T21:54:03.546Z,10.15
2023-03-29T21:56:30.720Z,9.23
2023-03-29T21:58:57.838Z,10.80
2023-03-29T22:01:25.034Z,12.77
2023-03-29T22:03:52.304Z,11.23
2023-03-29T22:06:19.574Z,11.52
2023-03-29T22:08:49.471Z,13.57
2023-03-29T22:11:17.257Z,15.00
2023-03-29T22:13:44.796Z,14.30
2023-03-29T22:16:14.006Z,13.40
2023-03-29T22:18:44.410Z,13.00
2023-03-29T22:21:15.638Z,14.10
2023-03-29T22:23:43.902Z,12.68
2023-03-29T22:26:12.201Z,9.60
2023-03-29T22:28:39.770Z,12.23
2023-03-29T22:31:11.454Z,8.55
2023-03-29T22:33:38.963Z,12.43
2023-03-29T22:36:17.176Z,7.65
2023-03-29T22:38:45.790Z,10.35
2023-03-29T22:41:13.240Z,9.40
2023-03-29T22:43:40.481Z,8.88
2023-03-29T22:46:09.223Z,8.05
2023-03-29T22:48:37.239Z,8.13
2023-03-29T22:51:05.523Z,9.00
2023-03-29T22:53:33.227Z,9.57
2023-03-29T22:56:00.820Z,8.32
2023-03-29T22:58:29.386Z,8.30
2023-03-29T23:00:57.819Z,7.05
2023-03-29T23:03:25.168Z,9.25
2023-03-29T23:05:54.872Z,7.07
2023-03-29T23:08:22.315Z,9.60
2023-03-29T23:10:49.558Z,9.23
2023-03-29T23:13:23.435Z,9.13
2023-03-29T23:15:50.982Z,8.05
2023-03-29T23:18:20.993Z,7.03
2023-03-29T23:20:52.375Z,8.68
2023-03-29T23:23:20.439Z,9.43
2023-03-29T23:25:48.227Z,7.03
2023-03-29T23:28:16.818Z,9.50
2023-03-29T23:30:44.073Z,8.35
2023-03-29T23:33:11.637Z,7.82
2023-03-29T23:35:38.824Z,7.22
2023-03-29T23:38:05.885Z,7.53
2023-03-29T23:40:33.162Z,8.57
2023-03-29T23:43:00.314Z,7.68
2023-03-29T23:45:28.080Z,7.05
2023-03-29T23:47:56.255Z,7.75
2023-03-29T23:50:23.539Z,8.50
2023-03-29T23:52:51.516Z,6.07
2023-03-29T23:55:19.348Z,8.05
2023-03-29T23:57:46.478Z,7.88
